Leesburg, New Jersey
Current Conditions -  °F | °C
As of 7:54 AM on Saturday 25 Oct 2014 (Local Time) from KMIV Reporting Station
Clear Clear  
Wind Chill: 36°   Ceiling: Unl
Heat Index: 39°   Visibility: 10mi
Dew Point: 38°   Wind: 5mph
Humidity: 96%   Direction: 260°W
Pressure: 29.93"   Gusts: NA
Location:  39.26°N, 74.99°W
Report Text: KMIV 251154Z AUTO 26004KT 10SM CLR 04/03 A2993 RMK AO2 SLP133 T00390033 10106 20022 53007
Loading
Personal Weather Stations






























Interactive Weather Map
Tropical Storm Tracking
New forecast layout! Learn more

10-Day Weather Forecast

Advertisements
Track Severe Weather on mobile